Time;durP1;ratioP1;P1;durP2;ratioP2;P2;SDS_P1;SDS_P2;PMS_P1;PMS_P2;Temp;Humidity;BMP_temperature;BMP_pressure;BME280_temperature;BME280_humidity;BME280_pressure;Samples;Min_cycle;Max_cycle;Signal;HPM_P1;HPM_P2
2021/05/10 00:01:12;;;;;;;2.10;1.00;;;22.10;41.20;;;;;;5104513;28;20580;-80
2021/05/10 00:03:39;;;;;;;1.65;0.80;;;22.10;41.30;;;;;;5093946;28;20142;-77
2021/05/10 00:06:07;;;;;;;1.67;0.80;;;22.00;43.20;;;;;;5111486;28;20149;-78
2021/05/10 00:08:33;;;;;;;1.85;0.80;;;21.90;43.00;;;;;;5107808;28;20097;-80
2021/05/10 00:11:00;;;;;;;1.83;0.73;;;21.90;42.40;;;;;;5100248;28;20529;-77
2021/05/10 00:13:28;;;;;;;2.40;0.85;;;21.80;42.00;;;;;;5091590;28;20101;-77
2021/05/10 00:15:55;;;;;;;1.95;0.70;;;21.70;42.40;;;;;;5091184;28;20086;-79
2021/05/10 00:18:23;;;;;;;2.20;0.80;;;21.70;42.30;;;;;;5093885;28;20127;-80
2021/05/10 00:20:50;;;;;;;1.55;0.70;;;21.60;41.90;;;;;;5093422;28;20047;-77
2021/05/10 00:23:18;;;;;;;1.70;0.77;;;21.60;41.70;;;;;;5111285;28;20055;-79
2021/05/10 00:25:46;;;;;;;2.78;0.85;;;21.60;41.60;;;;;;5111018;28;20096;-79
2021/05/10 00:28:14;;;;;;;3.53;0.90;;;21.60;42.70;;;;;;5092018;28;20126;-79
2021/05/10 00:30:41;;;;;;;2.78;1.00;;;21.60;43.70;;;;;;5105005;28;20474;-79
2021/05/10 00:33:08;;;;;;;2.47;0.90;;;21.50;45.70;;;;;;5091048;28;20123;-76
2021/05/10 00:35:35;;;;;;;2.30;0.90;;;21.40;45.70;;;;;;5091234;28;20072;-78
2021/05/10 00:38:03;;;;;;;2.42;1.00;;;21.20;45.60;;;;;;5094460;28;20127;-79
2021/05/10 00:40:33;;;;;;;4.40;1.00;;;21.10;47.00;;;;;;5094845;28;20445;-79
2021/05/10 00:43:01;;;;;;;2.58;1.00;;;21.00;48.10;;;;;;5102385;28;20131;-80
2021/05/10 00:45:28;;;;;;;2.30;1.00;;;20.90;49.20;;;;;;5114295;28;20118;-79
2021/05/10 00:47:55;;;;;;;3.25;1.20;;;20.80;49.80;;;;;;5114024;28;20454;-78
2021/05/10 00:50:23;;;;;;;3.28;1.25;;;20.70;50.60;;;;;;5107393;28;20469;-80
2021/05/10 00:52:50;;;;;;;4.05;1.20;;;20.60;51.00;;;;;;5093746;28;20079;-78
2021/05/10 00:55:17;;;;;;;3.25;1.20;;;20.40;51.80;;;;;;5101369;28;20104;-77
2021/05/10 00:57:52;;;;;;;2.33;0.88;;;20.20;52.00;;;;;;5095794;28;20051;-77
2021/05/10 01:00:22;;;;;;;3.35;1.25;;;20.00;52.90;;;;;;5113077;28;20070;-77
2021/05/10 01:02:49;;;;;;;2.88;1.15;;;19.80;53.40;;;;;;5113909;28;20054;-79
2021/05/10 01:05:17;;;;;;;2.15;1.00;;;19.70;53.90;;;;;;5114226;28;20086;-79
2021/05/10 01:07:44;;;;;;;2.25;1.00;;;19.60;54.00;;;;;;5112297;28;20075;-78
2021/05/10 01:10:13;;;;;;;2.28;0.80;;;19.60;55.10;;;;;;5114178;28;20127;-78
2021/05/10 01:12:40;;;;;;;3.30;1.20;;;19.50;55.90;;;;;;5112488;28;20086;-78
2021/05/10 01:15:12;;;;;;;2.00;1.00;;;19.40;55.20;;;;;;5114004;28;20524;-78
2021/05/10 01:17:42;;;;;;;4.15;1.40;;;19.30;55.80;;;;;;5113861;28;20098;-78
2021/05/10 01:20:12;;;;;;;2.60;1.10;;;19.10;56.30;;;;;;5092919;28;20452;-78
2021/05/10 01:22:45;;;;;;;2.08;1.00;;;19.00;55.00;;;;;;5108536;28;20126;-77
2021/05/10 01:25:17;;;;;;;2.50;1.00;;;18.90;54.40;;;;;;5113526;28;20139;-77
2021/05/10 01:27:45;;;;;;;3.75;0.80;;;18.90;56.30;;;;;;5092970;28;20200;-77
2021/05/10 01:30:17;;;;;;;3.35;1.23;;;18.80;55.70;;;;;;5093159;28;20055;-77
2021/05/10 01:32:44;;;;;;;2.63;1.10;;;18.90;56.70;;;;;;5092241;28;20068;-80
2021/05/10 01:35:13;;;;;;;2.85;1.10;;;18.80;56.80;;;;;;5092579;28;20086;-80
2021/05/10 01:37:40;;;;;;;2.40;1.25;;;18.80;57.80;;;;;;5092402;28;20565;-78
2021/05/10 01:40:09;;;;;;;3.13;1.33;;;18.80;59.10;;;;;;5098303;28;20047;-79
2021/05/10 01:42:36;;;;;;;2.70;1.33;;;18.70;59.60;;;;;;5103199;28;20171;-78
2021/05/10 01:45:04;;;;;;;2.90;1.17;;;18.70;59.40;;;;;;5096580;28;20122;-78
2021/05/10 01:47:31;;;;;;;2.20;0.95;;;18.70;57.90;;;;;;5116456;28;20138;-80
2021/05/10 01:49:58;;;;;;;2.92;1.17;;;18.70;59.40;;;;;;5117425;28;20075;-79
2021/05/10 01:52:25;;;;;;;3.50;1.20;;;18.70;60.80;;;;;;5117435;28;20075;-78
2021/05/10 01:54:53;;;;;;;2.92;1.27;;;18.60;60.40;;;;;;5115741;28;20485;-78
2021/05/10 01:57:22;;;;;;;2.63;1.00;;;18.40;59.30;;;;;;5117361;28;20126;-78
2021/05/10 01:59:49;;;;;;;4.50;1.40;;;18.30;59.00;;;;;;5117376;28;20075;-78
2021/05/10 02:02:16;;;;;;;2.60;1.10;;;18.20;60.60;;;;;;5117107;28;20481;-78
2021/05/10 02:05:15;;;;;;;2.03;0.90;;;18.10;61.10;;;;;;5117064;28;20536;-78
2021/05/10 02:07:45;;;;;;;3.70;0.90;;;18.10;61.80;;;;;;5104103;28;20549;-78
2021/05/10 02:10:15;;;;;;;2.42;1.05;;;18.10;62.60;;;;;;5096694;28;20434;-77
2021/05/10 02:12:52;;;;;;;3.60;1.30;;;18.10;63.40;;;;;;5096446;28;20067;-79
2021/05/10 02:15:19;;;;;;;2.42;1.10;;;18.00;64.40;;;;;;5096647;28;20495;-77
2021/05/10 02:17:46;;;;;;;3.72;1.35;;;18.00;64.80;;;;;;5078687;28;20463;-78
2021/05/10 02:20:14;;;;;;;2.25;1.08;;;17.90;64.50;;;;;;5096423;28;20083;-78
2021/05/10 02:22:41;;;;;;;2.35;1.13;;;17.90;63.90;;;;;;5096487;28;20497;-78
2021/05/10 02:25:09;;;;;;;2.28;0.98;;;17.80;63.30;;;;;;5096037;28;20123;-78
2021/05/10 02:27:36;;;;;;;2.58;0.80;;;17.80;65.70;;;;;;5096988;28;20517;-78
2021/05/10 02:30:06;;;;;;;2.40;1.05;;;17.80;65.40;;;;;;5078357;28;20075;-78
2021/05/10 02:32:33;;;;;;;3.20;1.30;;;17.90;66.20;;;;;;5078086;28;20506;-78
2021/05/10 02:34:59;;;;;;;2.42;1.10;;;17.90;67.40;;;;;;5104549;28;20075;-78
2021/05/10 02:37:26;;;;;;;2.65;1.00;;;17.80;68.70;;;;;;5116416;28;20126;-79
2021/05/10 02:39:52;;;;;;;2.72;0.93;;;17.80;70.70;;;;;;5099414;28;20505;-78
2021/05/10 02:42:19;;;;;;;5.18;1.35;;;17.70;72.50;;;;;;5102699;28;20528;-78
2021/05/10 02:44:45;;;;;;;3.00;1.30;;;17.70;73.50;;;;;;5114743;28;20079;-78
2021/05/10 02:47:13;;;;;;;2.33;1.05;;;17.70;73.80;;;;;;5116337;28;20143;-77
2021/05/10 02:49:39;;;;;;;4.72;1.33;;;17.70;73.90;;;;;;5116467;28;20127;-78
2021/05/10 02:52:06;;;;;;;2.30;0.93;;;17.60;74.70;;;;;;5115392;28;20140;-77
2021/05/10 02:54:33;;;;;;;1.85;0.95;;;17.60;75.60;;;;;;5116347;28;20071;-77
2021/05/10 02:56:59;;;;;;;3.55;1.40;;;17.50;76.70;;;;;;5115712;28;20130;-78
2021/05/10 02:59:26;;;;;;;2.80;1.15;;;17.60;76.30;;;;;;5115569;28;20135;-79
2021/05/10 03:01:52;;;;;;;2.67;1.00;;;17.50;77.70;;;;;;5113162;28;20114;-78
2021/05/10 03:04:20;;;;;;;3.72;1.20;;;17.50;77.90;;;;;;5111768;28;20126;-78
2021/05/10 03:06:47;;;;;;;3.53;1.58;;;17.50;78.60;;;;;;5112645;28;20119;-78
2021/05/10 03:09:13;;;;;;;3.92;1.40;;;17.40;78.80;;;;;;5112294;28;20134;-78
2021/05/10 03:11:40;;;;;;;2.55;1.23;;;17.30;78.80;;;;;;5093460;28;20181;-77
2021/05/10 03:14:07;;;;;;;3.72;1.10;;;17.20;79.60;;;;;;5112401;28;20078;-76
2021/05/10 03:16:34;;;;;;;2.42;1.20;;;17.20;81.00;;;;;;5078260;28;20127;-78
2021/05/10 03:19:03;;;;;;;2.92;1.10;;;17.10;81.00;;;;;;5104955;28;20504;-79
2021/05/10 03:21:30;;;;;;;2.08;0.80;;;17.00;80.40;;;;;;5112632;28;20392;-78
2021/05/10 03:23:58;;;;;;;1.75;0.82;;;16.80;81.60;;;;;;5092073;28;20139;-77
2021/05/10 03:26:24;;;;;;;2.45;1.10;;;16.60;82.90;;;;;;5091778;28;20456;-80
2021/05/10 03:28:51;;;;;;;1.95;0.90;;;16.60;82.90;;;;;;5091926;28;20181;-78
2021/05/10 03:31:18;;;;;;;3.90;1.20;;;16.70;83.30;;;;;;5091797;28;20126;-78
2021/05/10 03:33:44;;;;;;;2.65;0.85;;;16.70;82.70;;;;;;5095310;28;20075;-77
2021/05/10 03:36:11;;;;;;;1.27;0.60;;;16.80;79.10;;;;;;5111979;28;20130;-78
2021/05/10 03:38:39;;;;;;;2.75;1.10;;;17.00;76.80;;;;;;5111776;28;20046;-79
2021/05/10 03:41:05;;;;;;;4.57;1.20;;;17.20;78.40;;;;;;5111895;28;20075;-79
2021/05/10 03:43:32;;;;;;;1.75;0.80;;;17.20;76.60;;;;;;5111621;28;20504;-77
2021/05/10 03:45:58;;;;;;;2.67;0.90;;;17.40;72.10;;;;;;5104817;28;20123;-79
2021/05/10 03:48:25;;;;;;;2.92;1.00;;;17.60;72.30;;;;;;5098551;28;20082;-78
2021/05/10 03:50:52;;;;;;;2.38;0.95;;;17.60;69.10;;;;;;5111971;28;20058;-78
2021/05/10 03:53:20;;;;;;;2.03;1.00;;;17.80;66.00;;;;;;5111550;28;20089;-78
2021/05/10 03:55:47;;;;;;;2.42;1.00;;;18.10;63.90;;;;;;5103846;28;20075;-78
2021/05/10 03:58:14;;;;;;;2.17;1.00;;;18.30;61.80;;;;;;5090764;28;20079;-78
2021/05/10 04:00:40;;;;;;;1.98;0.90;;;18.50;60.30;;;;;;5090782;28;20207;-78
2021/05/10 04:03:09;;;;;;;2.30;1.00;;;18.70;60.30;;;;;;5089959;28;20048;-78
2021/05/10 04:05:54;;;;;;;1.80;1.00;;;18.80;58.70;;;;;;5090671;28;20052;-77
2021/05/10 04:08:42;;;;;;;2.75;1.00;;;19.00;57.80;;;;;;5105089;28;20266;-79
2021/05/10 04:11:12;;;;;;;2.60;1.00;;;19.10;57.10;;;;;;5111441;28;20048;-77
2021/05/10 04:13:42;;;;;;;2.55;1.00;;;19.20;56.40;;;;;;5111350;28;20052;-76
2021/05/10 04:16:09;;;;;;;3.10;1.02;;;19.20;56.40;;;;;;5096165;28;20054;-77
2021/05/10 04:18:36;;;;;;;2.55;1.00;;;19.30;56.50;;;;;;5101547;28;20130;-76
2021/05/10 04:21:03;;;;;;;3.53;0.90;;;19.30;56.50;;;;;;5101846;28;20503;-76
2021/05/10 04:23:29;;;;;;;2.10;1.02;;;19.30;56.60;;;;;;5097687;28;20071;-77
2021/05/10 04:25:56;;;;;;;2.47;1.13;;;19.30;57.10;;;;;;5111198;28;20083;-78
2021/05/10 04:28:25;;;;;;;2.35;0.90;;;19.30;57.10;;;;;;5077852;28;20052;-79
2021/05/10 04:30:55;;;;;;;2.05;1.00;;;19.40;57.10;;;;;;5072522;28;20048;-77
2021/05/10 04:33:31;;;;;;;3.53;1.20;;;19.30;56.50;;;;;;5090740;28;20060;-78
2021/05/10 04:35:58;;;;;;;3.75;1.20;;;19.30;56.00;;;;;;5089728;28;20149;-77
2021/05/10 04:38:25;;;;;;;3.60;1.02;;;19.40;55.80;;;;;;5090004;28;20048;-78
2021/05/10 04:40:54;;;;;;;2.80;1.10;;;19.40;55.80;;;;;;5091548;28;20048;-76
2021/05/10 04:43:21;;;;;;;2.83;0.98;;;19.40;56.00;;;;;;5091370;28;20409;-80
2021/05/10 04:45:48;;;;;;;2.28;1.20;;;19.40;56.00;;;;;;5091276;28;20047;-79
2021/05/10 04:48:15;;;;;;;2.92;0.93;;;19.40;56.10;;;;;;5091042;28;20125;-78
2021/05/10 04:50:42;;;;;;;1.77;0.80;;;19.50;56.20;;;;;;5091210;28;20098;-80
2021/05/10 04:53:11;;;;;;;3.55;1.02;;;19.50;56.90;;;;;;5091121;28;20098;-80
2021/05/10 04:55:38;;;;;;;1.90;0.80;;;19.50;57.40;;;;;;5090930;28;20047;-78
2021/05/10 04:58:04;;;;;;;2.67;0.93;;;19.50;57.80;;;;;;5090890;28;20458;-80
2021/05/10 05:00:31;;;;;;;2.78;1.30;;;19.50;58.60;;;;;;5091262;28;20577;-79
2021/05/10 05:02:59;;;;;;;3.22;1.40;;;19.60;61.90;;;;;;5091353;28;20080;-80
2021/05/10 05:05:25;;;;;;;3.60;1.80;;;19.60;63.80;;;;;;5091158;28;20083;-79
2021/05/10 05:07:52;;;;;;;4.63;1.73;;;19.50;65.50;;;;;;5091215;28;20489;-77
2021/05/10 05:10:18;;;;;;;2.95;1.38;;;19.40;67.90;;;;;;5090915;28;20097;-79
2021/05/10 05:12:48;;;;;;;6.63;1.60;;;19.30;70.00;;;;;;5090996;28;20131;-77
2021/05/10 05:15:17;;;;;;;4.10;1.40;;;19.20;71.50;;;;;;5091082;28;20463;-79
2021/05/10 05:17:44;;;;;;;3.33;1.50;;;19.10;72.90;;;;;;5093206;28;20496;-79
2021/05/10 05:20:14;;;;;;;4.22;1.80;;;19.10;74.60;;;;;;5092392;28;20087;-79
2021/05/10 05:22:40;;;;;;;5.30;1.90;;;19.00;75.60;;;;;;5104468;28;20469;-78
2021/05/10 05:25:09;;;;;;;3.90;1.73;;;18.90;75.40;;;;;;5113404;28;20495;-79
2021/05/10 05:27:37;;;;;;;3.72;1.88;;;18.90;76.00;;;;;;5113543;28;20108;-79
2021/05/10 05:30:05;;;;;;;3.45;1.60;;;18.80;76.40;;;;;;5113560;28;20123;-77
2021/05/10 05:32:32;;;;;;;4.28;1.63;;;18.80;79.20;;;;;;5113523;28;20086;-79
2021/05/10 05:34:58;;;;;;;5.47;1.98;;;18.70;81.60;;;;;;5113547;28;20134;-78
2021/05/10 05:37:26;;;;;;;3.80;1.80;;;18.70;82.50;;;;;;5113304;28;20086;-77
2021/05/10 05:39:53;;;;;;;6.82;1.52;;;18.50;81.80;;;;;;5113377;28;20528;-79
2021/05/10 05:42:19;;;;;;;3.80;1.50;;;18.40;82.40;;;;;;5113182;28;20138;-80
2021/05/10 05:44:49;;;;;;;4.32;2.00;;;18.40;83.10;;;;;;5113321;28;20067;-77
2021/05/10 05:47:22;;;;;;;3.17;1.52;;;18.30;84.30;;;;;;5113147;28;20051;-78
2021/05/10 05:49:49;;;;;;;4.53;1.80;;;18.20;85.20;;;;;;5113043;28;20097;-77
2021/05/10 05:52:16;;;;;;;3.42;1.30;;;18.00;85.40;;;;;;5095167;28;20127;-77
2021/05/10 05:54:43;;;;;;;3.33;1.27;;;17.90;86.30;;;;;;5113090;28;20537;-81
2021/05/10 05:57:10;;;;;;;3.67;1.48;;;17.90;86.40;;;;;;5112968;28;20492;-79
2021/05/10 05:59:37;;;;;;;4.78;1.50;;;17.90;86.80;;;;;;5113029;28;20093;-76
2021/05/10 06:02:04;;;;;;;3.55;1.50;;;17.90;86.70;;;;;;5113201;28;20130;-78
2021/05/10 06:04:31;;;;;;;3.60;1.48;;;18.00;86.60;;;;;;5094947;28;20473;-78
2021/05/10 06:06:57;;;;;;;3.47;1.40;;;18.10;87.70;;;;;;5113186;28;20139;-77
2021/05/10 06:09:25;;;;;;;2.90;1.25;;;18.10;87.20;;;;;;5112937;28;20079;-77
2021/05/10 06:11:55;;;;;;;4.43;1.67;;;18.30;86.90;;;;;;5113075;28;20052;-77
2021/05/10 06:14:22;;;;;;;4.07;1.58;;;18.30;87.50;;;;;;5112951;28;20116;-78
2021/05/10 06:16:48;;;;;;;3.97;1.70;;;18.50;86.50;;;;;;5113240;28;20143;-78
2021/05/10 06:19:15;;;;;;;3.88;1.70;;;18.60;86.00;;;;;;5112808;28;20497;-79
2021/05/10 06:21:42;;;;;;;3.30;1.67;;;18.60;86.30;;;;;;5112702;28;20538;-78
2021/05/10 06:24:09;;;;;;;8.60;1.80;;;18.70;87.40;;;;;;5113521;28;20570;-79
2021/05/10 06:26:36;;;;;;;4.88;1.80;;;18.80;87.00;;;;;;5112949;28;20130;-78
2021/05/10 06:29:04;;;;;;;4.47;1.77;;;18.90;86.70;;;;;;5112765;28;20079;-78
2021/05/10 06:31:31;;;;;;;4.97;1.95;;;19.00;87.50;;;;;;5113176;28;20089;-78
2021/05/10 06:33:58;;;;;;;4.03;2.10;;;18.90;86.40;;;;;;5098281;28;20051;-76
2021/05/10 06:36:24;;;;;;;4.05;1.52;;;18.90;86.80;;;;;;5098494;28;20127;-78
2021/05/10 06:38:51;;;;;;;4.03;1.80;;;18.90;86.40;;;;;;5116819;28;20079;-78
2021/05/10 06:41:17;;;;;;;4.05;1.50;;;18.90;85.70;;;;;;5116744;28;20221;-78
2021/05/10 06:43:44;;;;;;;3.75;1.60;;;18.90;85.80;;;;;;5117083;28;20454;-77
2021/05/10 06:46:12;;;;;;;4.60;1.40;;;19.00;85.40;;;;;;5098827;28;20086;-78
2021/05/10 06:48:38;;;;;;;3.38;1.75;;;19.00;85.70;;;;;;5116460;28;20094;-76
2021/05/10 06:51:05;;;;;;;3.40;1.30;;;19.10;84.80;;;;;;5116537;28;20437;-77
2021/05/10 06:53:32;;;;;;;3.50;1.10;;;19.10;85.40;;;;;;5117257;28;20075;-77
2021/05/10 06:55:59;;;;;;;3.10;1.20;;;19.20;85.10;;;;;;5117340;28;20160;-76
2021/05/10 06:58:26;;;;;;;3.78;1.40;;;19.30;84.70;;;;;;5116343;28;20056;-78
2021/05/10 07:00:54;;;;;;;3.65;1.23;;;19.40;84.30;;;;;;5117002;28;20082;-77
2021/05/10 07:03:22;;;;;;;3.10;1.30;;;19.60;83.30;;;;;;5117835;28;20402;-77
2021/05/10 07:05:49;;;;;;;2.95;1.50;;;19.60;82.60;;;;;;5116814;28;20086;-78
2021/05/10 07:08:18;;;;;;;4.35;1.75;;;19.70;82.40;;;;;;5116647;28;20134;-75
2021/05/10 07:10:47;;;;;;;3.40;1.58;;;19.80;80.80;;;;;;5115844;28;20126;-77
2021/05/10 07:13:14;;;;;;;2.80;1.40;;;19.80;81.50;;;;;;5115777;28;20541;-78
2021/05/10 07:15:41;;;;;;;4.70;1.50;;;19.90;82.40;;;;;;5097762;28;20090;-78
2021/05/10 07:18:10;;;;;;;3.40;1.10;;;19.90;82.60;;;;;;5115625;28;20130;-79
2021/05/10 07:20:39;;;;;;;3.42;1.30;;;20.00;82.40;;;;;;5115816;28;20043;-78
2021/05/10 07:23:07;;;;;;;2.22;1.00;;;20.00;82.20;;;;;;5116373;28;20085;-78
2021/05/10 07:25:34;;;;;;;3.05;1.30;;;20.10;81.60;;;;;;5115870;28;20090;-79
2021/05/10 07:28:02;;;;;;;3.13;1.20;;;20.10;80.90;;;;;;5115881;28;20094;-76
2021/05/10 07:30:29;;;;;;;3.00;1.45;;;20.20;80.90;;;;;;5115836;28;20489;-76
2021/05/10 07:32:55;;;;;;;4.07;1.40;;;20.30;80.50;;;;;;5115746;28;20054;-77
2021/05/10 07:35:22;;;;;;;3.45;1.38;;;20.30;81.20;;;;;;5116196;28;20072;-77
2021/05/10 07:37:50;;;;;;;3.15;1.40;;;20.40;81.90;;;;;;5115783;28;20130;-80
2021/05/10 07:40:21;;;;;;;4.63;1.63;;;20.40;82.30;;;;;;5116187;28;20051;-77
2021/05/10 07:42:48;;;;;;;2.65;1.10;;;20.40;83.40;;;;;;5115209;28;20126;-75
2021/05/10 07:45:15;;;;;;;3.70;1.20;;;20.40;83.80;;;;;;5097132;28;20090;-77
2021/05/10 07:47:43;;;;;;;4.13;1.60;;;20.50;84.50;;;;;;5115093;28;20130;-80
2021/05/10 07:50:11;;;;;;;3.85;1.40;;;20.60;84.50;;;;;;5115628;28;20069;-77
2021/05/10 07:52:38;;;;;;;4.22;1.50;;;20.60;84.80;;;;;;5115298;28;20048;-78
2021/05/10 07:55:07;;;;;;;2.42;1.17;;;20.70;85.10;;;;;;5115670;28;20054;-79
2021/05/10 07:57:34;;;;;;;5.45;1.50;;;20.70;85.00;;;;;;5114945;28;20139;-78
2021/05/10 08:00:03;;;;;;;3.97;1.40;;;20.80;84.70;;;;;;5096849;28;20464;-77
2021/05/10 08:02:32;;;;;;;3.20;1.35;;;20.80;84.50;;;;;;5115181;28;20082;-79
2021/05/10 08:04:59;;;;;;;4.07;1.65;;;20.80;84.70;;;;;;5097326;28;20043;-79
2021/05/10 08:07:25;;;;;;;3.17;1.40;;;20.80;83.80;;;;;;5115749;28;20075;-79
2021/05/10 08:09:53;;;;;;;3.92;1.40;;;20.90;83.60;;;;;;5096936;28;20131;-79
2021/05/10 08:12:21;;;;;;;3.80;1.55;;;20.90;83.80;;;;;;5113154;28;20130;-77
2021/05/10 08:14:48;;;;;;;4.70;1.73;;;21.00;84.50;;;;;;5114285;28;20103;-77
2021/05/10 08:17:15;;;;;;;4.20;1.48;;;21.10;82.70;;;;;;5110124;28;20138;-78
2021/05/10 08:19:42;;;;;;;3.92;1.55;;;21.10;81.70;;;;;;5114824;28;20075;-79
2021/05/10 08:22:08;;;;;;;4.35;1.60;;;21.20;81.00;;;;;;5115050;28;20473;-79
2021/05/10 08:24:35;;;;;;;4.20;1.85;;;21.30;80.30;;;;;;5114682;28;20043;-78
2021/05/10 08:27:02;;;;;;;3.42;1.80;;;21.30;80.20;;;;;;5115261;28;20501;-78
2021/05/10 08:29:29;;;;;;;3.80;1.50;;;21.40;79.30;;;;;;5114299;28;20135;-77
2021/05/10 08:31:56;;;;;;;4.10;1.50;;;21.50;78.80;;;;;;5096606;28;20131;-79
2021/05/10 08:34:25;;;;;;;5.18;1.20;;;21.60;77.70;;;;;;5114469;28;20446;-79
2021/05/10 08:36:51;;;;;;;4.47;1.63;;;21.80;77.20;;;;;;5114846;28;20081;-78
2021/05/10 08:39:18;;;;;;;4.10;1.40;;;21.90;77.00;;;;;;5113863;28;20047;-79
2021/05/10 08:41:45;;;;;;;3.20;1.73;;;22.00;76.00;;;;;;5109548;28;20139;-77
2021/05/10 08:44:12;;;;;;;2.95;1.38;;;22.20;75.20;;;;;;5114759;28;20071;-78
2021/05/10 08:46:41;;;;;;;4.45;1.30;;;22.20;74.50;;;;;;5109699;28;20083;-78
2021/05/10 08:49:09;;;;;;;4.53;1.70;;;22.30;73.40;;;;;;5114440;28;20127;-78
2021/05/10 08:51:37;;;;;;;4.82;1.58;;;22.40;71.70;;;;;;5114517;28;20079;-77
2021/05/10 08:54:16;;;;;;;3.30;1.30;;;22.50;69.40;;;;;;5113663;28;20621;-77
2021/05/10 08:56:43;;;;;;;3.30;1.10;;;22.50;68.70;;;;;;5113703;28;20058;-78
2021/05/10 08:59:09;;;;;;;3.13;1.27;;;22.60;69.40;;;;;;5114116;28;20086;-79
2021/05/10 09:01:48;;;;;;;2.83;1.35;;;22.60;69.30;;;;;;5114403;28;20106;-78
2021/05/10 09:04:16;;;;;;;5.57;1.30;;;22.70;69.30;;;;;;5114928;28;20419;-79
2021/05/10 09:06:42;;;;;;;2.70;1.08;;;22.80;66.90;;;;;;5114435;28;20043;-78
2021/05/10 09:09:11;;;;;;;2.80;1.15;;;22.80;67.50;;;;;;5114639;28;20071;-78
2021/05/10 09:11:54;;;;;;;3.22;1.10;;;22.80;67.30;;;;;;5114678;28;20069;-78
2021/05/10 09:14:31;;;;;;;2.95;1.00;;;23.00;66.40;;;;;;5114610;28;20051;-76
2021/05/10 09:16:58;;;;;;;2.53;1.00;;;23.00;65.50;;;;;;5113942;28;20085;-79
2021/05/10 09:19:42;;;;;;;3.22;1.20;;;23.00;65.30;;;;;;5113672;28;20134;-78
2021/05/10 09:22:08;;;;;;;6.07;1.30;;;23.00;65.40;;;;;;5113938;28;20048;-77
2021/05/10 09:24:49;;;;;;;2.97;1.10;;;23.10;65.80;;;;;;5113053;28;20401;-78
2021/05/10 09:27:29;;;;;;;4.40;1.40;;;23.30;66.00;;;;;;5110283;28;20083;-79
2021/05/10 09:30:16;;;;;;;6.18;1.60;;;23.40;64.50;;;;;;5111067;28;20048;-79
2021/05/10 09:32:49;;;;;;;3.53;1.38;;;23.50;63.70;;;;;;5111122;28;20087;-77
2021/05/10 09:35:19;;;;;;;3.28;0.95;;;23.60;63.70;;;;;;5111451;28;20055;-77
2021/05/10 09:38:04;;;;;;;3.38;1.17;;;23.60;62.20;;;;;;5110585;28;20132;-77
2021/05/10 09:40:45;;;;;;;3.45;1.10;;;23.60;62.40;;;;;;5110002;28;20126;-78
2021/05/10 09:43:14;;;;;;;3.58;1.10;;;23.60;62.50;;;;;;5111115;28;20131;-78
2021/05/10 09:45:46;;;;;;;3.47;1.20;;;23.60;62.90;;;;;;5108834;28;20449;-76
2021/05/10 09:48:27;;;;;;;3.63;1.52;;;23.60;63.10;;;;;;5109572;28;20064;-77
2021/05/10 09:50:57;;;;;;;4.18;1.67;;;23.70;63.30;;;;;;5104898;28;20137;-78
2021/05/10 09:53:40;;;;;;;4.05;2.15;;;23.60;64.00;;;;;;5109759;28;20062;-78
2021/05/10 09:56:11;;;;;;;3.55;1.30;;;23.70;64.40;;;;;;5107614;28;20047;-78
2021/05/10 09:58:47;;;;;;;4.18;1.80;;;23.60;63.90;;;;;;5108153;28;20062;-79
2021/05/10 10:01:14;;;;;;;4.65;1.92;;;23.60;63.80;;;;;;5109089;28;20051;-75
2021/05/10 10:03:44;;;;;;;4.50;1.30;;;23.60;63.80;;;;;;5109522;28;20127;-78
2021/05/10 10:06:12;;;;;;;4.20;1.55;;;23.60;64.60;;;;;;5110121;28;20104;-76
2021/05/10 10:08:41;;;;;;;5.75;1.30;;;23.60;65.00;;;;;;5113149;28;20122;-77
2021/05/10 10:11:10;;;;;;;4.68;1.33;;;23.60;64.50;;;;;;5112549;28;20130;-77
2021/05/10 10:13:37;;;;;;;4.47;1.30;;;23.60;63.90;;;;;;5113258;28;20075;-76
2021/05/10 10:16:07;;;;;;;6.07;1.50;;;23.50;64.20;;;;;;5113408;28;20051;-78
2021/05/10 10:18:38;;;;;;;3.72;1.38;;;23.50;64.50;;;;;;5112926;28;20054;-77
2021/05/10 10:21:07;;;;;;;3.35;1.38;;;23.50;65.30;;;;;;5112949;28;20067;-78
2021/05/10 10:23:35;;;;;;;5.63;1.70;;;23.50;64.30;;;;;;5113606;28;20473;-77
2021/05/10 10:26:06;;;;;;;3.72;1.40;;;23.40;64.60;;;;;;5112924;28;20055;-78
2021/05/10 10:28:35;;;;;;;6.00;1.50;;;23.40;64.60;;;;;;5113056;28;20056;-76
2021/05/10 10:31:05;;;;;;;3.85;1.30;;;23.40;64.90;;;;;;5113138;28;20051;-78
2021/05/10 10:33:46;;;;;;;4.13;1.40;;;23.30;65.30;;;;;;5113274;28;20513;-76
2021/05/10 10:36:24;;;;;;;4.15;1.40;;;23.30;65.50;;;;;;5112921;28;20055;-76
2021/05/10 10:39:12;;;;;;;3.72;1.50;;;23.30;66.00;;;;;;5112265;28;20066;-77
2021/05/10 10:41:53;;;;;;;4.95;1.80;;;23.30;65.40;;;;;;5092938;28;20079;-79
2021/05/10 10:44:39;;;;;;;3.75;1.30;;;23.30;65.90;;;;;;5092441;28;20050;-77
2021/05/10 10:47:08;;;;;;;5.03;1.50;;;23.30;65.90;;;;;;5092577;28;20048;-77
2021/05/10 10:49:37;;;;;;;6.00;1.27;;;23.30;66.40;;;;;;5092717;28;20088;-77
2021/05/10 10:52:17;;;;;;;4.22;1.50;;;23.20;65.50;;;;;;5092278;28;20087;-78
2021/05/10 10:54:44;;;;;;;3.22;1.30;;;23.20;66.70;;;;;;5101551;28;20443;-75
2021/05/10 10:57:11;;;;;;;4.05;1.30;;;23.10;67.00;;;;;;5116492;28;20039;-78
2021/05/10 10:59:39;;;;;;;4.40;1.50;;;23.10;66.90;;;;;;5116606;28;20047;-78
2021/05/10 11:02:19;;;;;;;4.40;1.30;;;23.10;65.90;;;;;;5098490;28;20470;-79
2021/05/10 11:05:06;;;;;;;4.38;1.15;;;23.00;65.70;;;;;;5116555;28;20075;-79
2021/05/10 11:07:54;;;;;;;2.95;1.00;;;23.00;66.60;;;;;;5116684;28;20054;-76
2021/05/10 11:10:48;;;;;;;3.25;1.20;;;23.00;64.70;;;;;;5116251;28;20138;-77
2021/05/10 11:13:39;;;;;;;2.53;1.10;;;22.90;64.90;;;;;;5115573;28;20040;-79
2021/05/10 11:16:09;;;;;;;5.20;1.20;;;22.80;65.00;;;;;;5112067;28;20138;-78
2021/05/10 11:18:43;;;;;;;3.25;1.13;;;22.70;64.90;;;;;;5116074;28;20051;-80
2021/05/10 11:21:38;;;;;;;2.97;1.05;;;22.60;64.80;;;;;;5116247;28;20413;-80
2021/05/10 11:24:10;;;;;;;2.78;0.85;;;22.60;64.90;;;;;;5113112;28;20078;-80
2021/05/10 11:26:44;;;;;;;2.10;0.80;;;22.40;65.00;;;;;;5113100;28;20473;-78
2021/05/10 11:29:34;;;;;;;3.60;1.20;;;22.30;65.40;;;;;;5112810;28;20040;-79
2021/05/10 11:32:30;;;;;;;2.95;1.15;;;22.40;65.30;;;;;;5112111;28;20044;-78
2021/05/10 11:34:57;;;;;;;2.83;0.80;;;22.30;65.30;;;;;;5078462;28;20093;-78
2021/05/10 11:37:26;;;;;;;2.28;0.98;;;22.30;65.60;;;;;;5111715;28;20092;-78
2021/05/10 11:39:58;;;;;;;3.22;0.90;;;22.30;65.50;;;;;;5112440;28;20075;-79
2021/05/10 11:42:28;;;;;;;2.90;0.90;;;22.30;65.90;;;;;;5111888;28;20574;-78
2021/05/10 11:44:56;;;;;;;2.88;0.90;;;22.30;67.10;;;;;;5112122;28;20126;-77
2021/05/10 11:47:23;;;;;;;2.08;0.70;;;22.30;66.90;;;;;;5111235;28;20094;-78
2021/05/10 11:49:51;;;;;;;2.83;1.10;;;22.40;66.30;;;;;;5111486;28;20082;-77
2021/05/10 11:52:21;;;;;;;3.13;0.73;;;22.30;66.10;;;;;;5111633;28;20098;-78
2021/05/10 11:54:50;;;;;;;2.85;0.90;;;22.30;66.60;;;;;;5111662;28;20511;-78
2021/05/10 11:57:22;;;;;;;3.38;0.80;;;22.40;67.50;;;;;;5112816;28;20532;-77
2021/05/10 11:59:52;;;;;;;4.75;2.45;;;22.40;67.30;;;;;;5112046;28;20047;-77
2021/05/10 12:02:22;;;;;;;5.78;1.63;;;22.40;67.30;;;;;;5111127;28;20047;-77
2021/05/10 12:04:51;;;;;;;3.88;1.80;;;22.40;68.00;;;;;;5111974;28;20048;-77
2021/05/10 12:07:19;;;;;;;3.50;0.90;;;22.40;67.20;;;;;;5111311;28;20051;-77
2021/05/10 12:09:50;;;;;;;2.40;1.02;;;22.30;66.40;;;;;;5111285;28;20054;-78
2021/05/10 12:12:32;;;;;;;3.85;0.95;;;22.40;67.80;;;;;;5111311;28;20488;-77
2021/05/10 12:15:10;;;;;;;2.30;1.00;;;22.30;67.70;;;;;;5111051;28;20130;-78
2021/05/10 12:17:37;;;;;;;2.30;0.90;;;22.30;67.60;;;;;;5090870;28;20055;-77
2021/05/10 12:20:13;;;;;;;2.40;0.90;;;22.20;67.80;;;;;;5090877;28;20048;-77
2021/05/10 12:22:42;;;;;;;3.67;1.10;;;22.20;67.80;;;;;;5091041;28;20086;-77
2021/05/10 12:25:19;;;;;;;2.20;0.80;;;22.10;67.40;;;;;;5090257;28;20177;-79
2021/05/10 12:27:50;;;;;;;2.53;1.10;;;22.20;68.10;;;;;;5090492;28;20044;-78
2021/05/10 12:30:29;;;;;;;1.88;0.70;;;22.10;68.20;;;;;;5110602;28;20052;-76
2021/05/10 12:32:58;;;;;;;2.55;0.88;;;22.00;67.90;;;;;;5110958;28;20490;-78
2021/05/10 12:35:29;;;;;;;3.28;1.10;;;22.00;66.90;;;;;;5109392;28;20053;-77
2021/05/10 12:37:58;;;;;;;2.70;0.80;;;22.00;66.40;;;;;;5111465;28;20097;-77
2021/05/10 12:40:27;;;;;;;1.80;0.80;;;21.90;65.70;;;;;;5110396;28;20083;-77
2021/05/10 12:43:11;;;;;;;1.88;0.70;;;21.90;65.50;;;;;;5110780;28;20139;-77
2021/05/10 12:45:40;;;;;;;2.45;0.85;;;21.90;65.60;;;;;;5093272;28;20047;-79
2021/05/10 12:48:29;;;;;;;1.58;0.70;;;21.90;66.00;;;;;;5110689;28;20083;-78
2021/05/10 12:51:05;;;;;;;3.33;0.80;;;21.80;66.00;;;;;;5107201;28;20495;-77
2021/05/10 12:53:35;;;;;;;2.25;0.82;;;21.80;65.30;;;;;;5110292;28;20134;-78
2021/05/10 12:56:04;;;;;;;4.88;2.30;;;21.80;65.40;;;;;;5111474;28;20067;-75
2021/05/10 12:58:36;;;;;;;3.85;1.30;;;21.80;65.40;;;;;;5093320;28;20489;-77
2021/05/10 13:01:15;;;;;;;4.05;1.52;;;21.70;65.10;;;;;;5110653;28;20094;-78